sensor_id;sensor_type;location;lat;lon;timestamp;P1;durP1;ratioP1;P2;durP2;ratioP2
72603;SDS011;60645;56.968;24.196;2023-12-28T04:29:09;0.65;;;0.22;;
72603;SDS011;60645;56.968;24.196;2023-12-28T04:53:47;8.27;;;1.67;;
72603;SDS011;60645;56.968;24.196;2023-12-28T04:56:17;8.32;;;2.60;;
72603;SDS011;60645;56.968;24.196;2023-12-28T04:58:45;7.68;;;2.17;;
72603;SDS011;60645;56.968;24.196;2023-12-28T05:01:12;4.53;;;1.60;;
72603;SDS011;60645;56.968;24.196;2023-12-28T05:03:39;9.00;;;1.35;;
72603;SDS011;60645;56.968;24.196;2023-12-28T05:08:33;3.65;;;1.23;;
72603;SDS011;60645;56.968;24.196;2023-12-28T05:11:00;8.20;;;3.17;;
72603;SDS011;60645;56.968;24.196;2023-12-28T05:13:27;6.97;;;2.25;;
72603;SDS011;60645;56.968;24.196;2023-12-28T05:15:54;7.50;;;1.90;;
72603;SDS011;60645;56.968;24.196;2023-12-28T05:18:21;5.57;;;1.40;;
72603;SDS011;60645;56.968;24.196;2023-12-28T05:20:48;6.68;;;1.95;;
72603;SDS011;60645;56.968;24.196;2023-12-28T05:23:15;5.13;;;1.77;;
72603;SDS011;60645;56.968;24.196;2023-12-28T05:25:42;6.35;;;2.22;;
72603;SDS011;60645;56.968;24.196;2023-12-28T05:28:09;7.80;;;2.88;;
72603;SDS011;60645;56.968;24.196;2023-12-28T05:30:36;5.68;;;2.50;;
72603;SDS011;60645;56.968;24.196;2023-12-28T05:33:04;7.28;;;2.63;;
72603;SDS011;60645;56.968;24.196;2023-12-28T05:35:31;6.70;;;2.30;;
72603;SDS011;60645;56.968;24.196;2023-12-28T05:37:58;8.52;;;2.97;;
72603;SDS011;60645;56.968;24.196;2023-12-28T05:40:25;6.13;;;2.38;;
72603;SDS011;60645;56.968;24.196;2023-12-28T05:42:52;7.70;;;2.28;;
72603;SDS011;60645;56.968;24.196;2023-12-28T05:47:46;6.80;;;2.15;;
72603;SDS011;60645;56.968;24.196;2023-12-28T05:50:13;7.03;;;2.47;;
72603;SDS011;60645;56.968;24.196;2023-12-28T05:52:39;8.77;;;2.50;;
72603;SDS011;60645;56.968;24.196;2023-12-28T06:27:06;5.47;;;1.42;;
72603;SDS011;60645;56.968;24.196;2023-12-28T06:29:33;6.70;;;2.35;;
72603;SDS011;60645;56.968;24.196;2023-12-28T07:23:28;7.03;;;1.88;;
72603;SDS011;60645;56.968;24.196;2023-12-28T07:25:54;5.07;;;1.15;;
72603;SDS011;60645;56.968;24.196;2023-12-28T07:28:21;6.63;;;2.50;;
72603;SDS011;60645;56.968;24.196;2023-12-28T07:30:48;4.03;;;1.85;;
72603;SDS011;60645;56.968;24.196;2023-12-28T07:33:15;9.38;;;3.05;;
72603;SDS011;60645;56.968;24.196;2023-12-28T07:35:42;8.60;;;1.90;;
72603;SDS011;60645;56.968;24.196;2023-12-28T07:38:09;8.95;;;3.30;;
72603;SDS011;60645;56.968;24.196;2023-12-28T07:40:36;6.55;;;2.92;;
72603;SDS011;60645;56.968;24.196;2023-12-28T07:43:04;9.75;;;3.38;;
72603;SDS011;60645;56.968;24.196;2023-12-28T07:45:31;7.57;;;2.85;;
72603;SDS011;60645;56.968;24.196;2023-12-28T07:48:01;8.98;;;2.92;;
72603;SDS011;60645;56.968;24.196;2023-12-28T07:50:30;6.60;;;2.22;;
72603;SDS011;60645;56.968;24.196;2023-12-28T07:52:57;4.38;;;1.98;;
72603;SDS011;60645;56.968;24.196;2023-12-28T07:55:24;6.63;;;2.60;;
72603;SDS011;60645;56.968;24.196;2023-12-28T07:57:52;5.82;;;1.48;;
72603;SDS011;60645;56.968;24.196;2023-12-28T08:00:19;6.50;;;1.98;;
72603;SDS011;60645;56.968;24.196;2023-12-28T08:02:46;7.00;;;1.52;;
72603;SDS011;60645;56.968;24.196;2023-12-28T08:05:13;3.10;;;0.82;;
72603;SDS011;60645;56.968;24.196;2023-12-28T08:07:40;6.63;;;1.77;;
72603;SDS011;60645;56.968;24.196;2023-12-28T08:10:07;11.02;;;2.15;;
72603;SDS011;60645;56.968;24.196;2023-12-28T08:12:34;6.65;;;1.90;;
72603;SDS011;60645;56.968;24.196;2023-12-28T08:15:01;9.05;;;1.75;;
72603;SDS011;60645;56.968;24.196;2023-12-28T08:17:28;5.05;;;1.88;;
72603;SDS011;60645;56.968;24.196;2023-12-28T08:19:55;4.97;;;1.90;;
72603;SDS011;60645;56.968;24.196;2023-12-28T08:22:22;6.00;;;1.63;;
72603;SDS011;60645;56.968;24.196;2023-12-28T08:24:49;9.85;;;2.13;;
72603;SDS011;60645;56.968;24.196;2023-12-28T08:27:16;7.38;;;2.17;;
72603;SDS011;60645;56.968;24.196;2023-12-28T08:29:43;9.18;;;1.98;;
72603;SDS011;60645;56.968;24.196;2023-12-28T08:32:10;4.50;;;1.08;;
72603;SDS011;60645;56.968;24.196;2023-12-28T08:34:37;9.70;;;2.10;;
72603;SDS011;60645;56.968;24.196;2023-12-28T08:37:05;6.05;;;1.85;;
72603;SDS011;60645;56.968;24.196;2023-12-28T08:39:33;7.63;;;1.90;;
72603;SDS011;60645;56.968;24.196;2023-12-28T08:42:00;10.88;;;2.33;;
72603;SDS011;60645;56.968;24.196;2023-12-28T08:44:27;7.97;;;1.70;;
72603;SDS011;60645;56.968;24.196;2023-12-28T08:46:54;7.85;;;2.30;;
72603;SDS011;60645;56.968;24.196;2023-12-28T08:49:21;12.20;;;2.65;;
72603;SDS011;60645;56.968;24.196;2023-12-28T08:51:49;8.00;;;3.28;;
72603;SDS011;60645;56.968;24.196;2023-12-28T08:54:17;6.72;;;2.60;;
72603;SDS011;60645;56.968;24.196;2023-12-28T08:56:44;6.70;;;2.80;;
72603;SDS011;60645;56.968;24.196;2023-12-28T08:59:14;5.13;;;2.05;;
72603;SDS011;60645;56.968;24.196;2023-12-28T09:01:41;9.60;;;2.10;;
72603;SDS011;60645;56.968;24.196;2023-12-28T09:09:02;6.35;;;1.25;;
72603;SDS011;60645;56.968;24.196;2023-12-28T09:11:30;4.60;;;1.35;;
72603;SDS011;60645;56.968;24.196;2023-12-28T09:13:57;10.23;;;3.25;;
72603;SDS011;60645;56.968;24.196;2023-12-28T09:16:24;6.78;;;1.23;;
72603;SDS011;60645;56.968;24.196;2023-12-28T09:18:51;10.63;;;2.42;;
72603;SDS011;60645;56.968;24.196;2023-12-28T09:21:18;6.57;;;1.92;;
72603;SDS011;60645;56.968;24.196;2023-12-28T09:23:45;6.00;;;1.83;;
72603;SDS011;60645;56.968;24.196;2023-12-28T09:26:12;7.82;;;2.08;;
72603;SDS011;60645;56.968;24.196;2023-12-28T09:28:39;9.00;;;2.22;;
72603;SDS011;60645;56.968;24.196;2023-12-28T09:31:07;3.35;;;1.58;;
72603;SDS011;60645;56.968;24.196;2023-12-28T09:33:34;8.13;;;1.85;;
72603;SDS011;60645;56.968;24.196;2023-12-28T09:38:31;6.97;;;1.95;;
72603;SDS011;60645;56.968;24.196;2023-12-28T09:40:58;7.18;;;1.88;;
72603;SDS011;60645;56.968;24.196;2023-12-28T09:46:24;6.65;;;1.85;;
72603;SDS011;60645;56.968;24.196;2023-12-28T09:48:53;7.40;;;1.63;;
72603;SDS011;60645;56.968;24.196;2023-12-28T09:51:23;7.20;;;1.92;;
72603;SDS011;60645;56.968;24.196;2023-12-28T09:53:52;8.15;;;2.38;;
72603;SDS011;60645;56.968;24.196;2023-12-28T09:56:19;6.10;;;2.38;;
72603;SDS011;60645;56.968;24.196;2023-12-28T09:58:47;8.05;;;2.00;;
72603;SDS011;60645;56.968;24.196;2023-12-28T10:01:17;5.00;;;2.13;;
72603;SDS011;60645;56.968;24.196;2023-12-28T10:03:45;4.38;;;1.63;;
72603;SDS011;60645;56.968;24.196;2023-12-28T10:06:12;3.90;;;1.50;;
72603;SDS011;60645;56.968;24.196;2023-12-28T10:08:45;6.65;;;2.53;;
72603;SDS011;60645;56.968;24.196;2023-12-28T10:11:15;6.50;;;2.33;;
72603;SDS011;60645;56.968;24.196;2023-12-28T10:13:42;5.47;;;2.00;;
72603;SDS011;60645;56.968;24.196;2023-12-28T10:16:10;6.55;;;2.28;;
72603;SDS011;60645;56.968;24.196;2023-12-28T10:18:44;10.27;;;2.78;;
72603;SDS011;60645;56.968;24.196;2023-12-28T10:21:11;8.32;;;2.33;;
72603;SDS011;60645;56.968;24.196;2023-12-28T10:23:39;10.07;;;3.20;;
72603;SDS011;60645;56.968;24.196;2023-12-28T10:26:06;10.90;;;2.78;;
72603;SDS011;60645;56.968;24.196;2023-12-28T10:28:35;4.57;;;2.38;;
72603;SDS011;60645;56.968;24.196;2023-12-28T10:31:06;5.95;;;2.00;;
72603;SDS011;60645;56.968;24.196;2023-12-28T10:33:34;8.52;;;3.10;;
72603;SDS011;60645;56.968;24.196;2023-12-28T10:36:07;6.80;;;1.83;;
72603;SDS011;60645;56.968;24.196;2023-12-28T10:38:36;7.68;;;3.58;;
72603;SDS011;60645;56.968;24.196;2023-12-28T10:41:05;7.35;;;3.38;;
72603;SDS011;60645;56.968;24.196;2023-12-28T10:43:47;12.95;;;4.40;;
72603;SDS011;60645;56.968;24.196;2023-12-28T10:46:38;8.40;;;3.85;;
72603;SDS011;60645;56.968;24.196;2023-12-28T10:49:10;8.95;;;3.25;;
72603;SDS011;60645;56.968;24.196;2023-12-28T10:51:43;10.85;;;3.88;;
72603;SDS011;60645;56.968;24.196;2023-12-28T10:57:01;6.85;;;2.80;;
72603;SDS011;60645;56.968;24.196;2023-12-28T11:02:20;8.00;;;2.75;;
72603;SDS011;60645;56.968;24.196;2023-12-28T11:04:51;12.88;;;3.88;;
72603;SDS011;60645;56.968;24.196;2023-12-28T11:07:20;5.43;;;2.17;;
72603;SDS011;60645;56.968;24.196;2023-12-28T11:09:47;6.80;;;2.60;;
72603;SDS011;60645;56.968;24.196;2023-12-28T11:12:16;9.48;;;2.38;;
72603;SDS011;60645;56.968;24.196;2023-12-28T11:14:46;8.27;;;3.28;;
72603;SDS011;60645;56.968;24.196;2023-12-28T11:22:09;7.40;;;3.45;;
72603;SDS011;60645;56.968;24.196;2023-12-28T11:24:37;8.25;;;3.58;;
72603;SDS011;60645;56.968;24.196;2023-12-28T11:27:04;8.60;;;3.78;;
72603;SDS011;60645;56.968;24.196;2023-12-28T11:29:36;6.70;;;2.72;;
72603;SDS011;60645;56.968;24.196;2023-12-28T11:32:03;8.55;;;4.00;;
72603;SDS011;60645;56.968;24.196;2023-12-28T11:34:31;7.97;;;2.92;;
72603;SDS011;60645;56.968;24.196;2023-12-28T11:37:11;6.97;;;3.22;;
72603;SDS011;60645;56.968;24.196;2023-12-28T11:39:41;10.35;;;3.38;;
72603;SDS011;60645;56.968;24.196;2023-12-28T11:42:11;14.10;;;3.80;;
72603;SDS011;60645;56.968;24.196;2023-12-28T11:44:41;9.70;;;3.90;;
72603;SDS011;60645;56.968;24.196;2023-12-28T11:47:13;10.38;;;2.47;;
72603;SDS011;60645;56.968;24.196;2023-12-28T11:49:41;7.32;;;3.25;;
72603;SDS011;60645;56.968;24.196;2023-12-28T11:52:22;7.65;;;2.92;;
72603;SDS011;60645;56.968;24.196;2023-12-28T11:54:52;10.18;;;3.85;;
72603;SDS011;60645;56.968;24.196;2023-12-28T11:57:20;6.13;;;2.92;;
72603;SDS011;60645;56.968;24.196;2023-12-28T11:59:57;9.70;;;3.65;;
72603;SDS011;60645;56.968;24.196;2023-12-28T12:02:26;10.70;;;4.70;;
72603;SDS011;60645;56.968;24.196;2023-12-28T12:04:56;9.63;;;4.28;;
72603;SDS011;60645;56.968;24.196;2023-12-28T12:07:28;8.43;;;4.43;;
72603;SDS011;60645;56.968;24.196;2023-12-28T12:09:59;10.52;;;4.80;;
72603;SDS011;60645;56.968;24.196;2023-12-28T12:12:27;11.43;;;3.80;;
72603;SDS011;60645;56.968;24.196;2023-12-28T12:14:54;9.90;;;3.10;;
72603;SDS011;60645;56.968;24.196;2023-12-28T12:17:23;12.48;;;3.65;;
72603;SDS011;60645;56.968;24.196;2023-12-28T12:19:52;8.23;;;3.33;;
72603;SDS011;60645;56.968;24.196;2023-12-28T12:22:22;12.60;;;5.70;;
72603;SDS011;60645;56.968;24.196;2023-12-28T12:24:53;6.25;;;3.08;;
72603;SDS011;60645;56.968;24.196;2023-12-28T12:27:22;9.00;;;3.33;;
72603;SDS011;60645;56.968;24.196;2023-12-28T12:29:49;9.43;;;3.97;;
72603;SDS011;60645;56.968;24.196;2023-12-28T12:32:16;8.53;;;3.87;;
72603;SDS011;60645;56.968;24.196;2023-12-28T12:34:43;12.65;;;4.25;;
72603;SDS011;60645;56.968;24.196;2023-12-28T12:37:10;7.60;;;3.03;;
72603;SDS011;60645;56.968;24.196;2023-12-28T12:39:37;9.13;;;2.85;;
72603;SDS011;60645;56.968;24.196;2023-12-28T12:42:04;8.43;;;2.90;;
72603;SDS011;60645;56.968;24.196;2023-12-28T12:44:32;10.18;;;3.10;;
72603;SDS011;60645;56.968;24.196;2023-12-28T12:46:59;8.23;;;2.83;;
72603;SDS011;60645;56.968;24.196;2023-12-28T12:49:26;9.25;;;3.15;;
72603;SDS011;60645;56.968;24.196;2023-12-28T12:51:53;8.57;;;3.78;;
72603;SDS011;60645;56.968;24.196;2023-12-28T12:54:21;7.05;;;2.80;;
72603;SDS011;60645;56.968;24.196;2023-12-28T12:56:49;11.15;;;3.63;;
72603;SDS011;60645;56.968;24.196;2023-12-28T12:59:17;14.18;;;3.47;;
72603;SDS011;60645;56.968;24.196;2023-12-28T13:01:44;7.13;;;3.15;;
72603;SDS011;60645;56.968;24.196;2023-12-28T13:04:17;10.65;;;4.18;;
72603;SDS011;60645;56.968;24.196;2023-12-28T13:06:44;8.95;;;4.07;;
72603;SDS011;60645;56.968;24.196;2023-12-28T13:09:11;12.98;;;4.80;;
72603;SDS011;60645;56.968;24.196;2023-12-28T13:11:38;11.07;;;3.83;;
72603;SDS011;60645;56.968;24.196;2023-12-28T13:14:05;9.40;;;3.38;;
72603;SDS011;60645;56.968;24.196;2023-12-28T13:16:32;10.13;;;3.65;;
72603;SDS011;60645;56.968;24.196;2023-12-28T13:18:59;8.13;;;3.10;;
72603;SDS011;60645;56.968;24.196;2023-12-28T13:21:26;13.50;;;3.78;;
72603;SDS011;60645;56.968;24.196;2023-12-28T13:23:53;8.88;;;3.33;;
72603;SDS011;60645;56.968;24.196;2023-12-28T13:26:20;9.82;;;3.55;;
72603;SDS011;60645;56.968;24.196;2023-12-28T13:28:47;11.18;;;4.15;;
72603;SDS011;60645;56.968;24.196;2023-12-28T13:31:14;12.70;;;4.28;;
72603;SDS011;60645;56.968;24.196;2023-12-28T13:33:41;8.57;;;3.03;;
72603;SDS011;60645;56.968;24.196;2023-12-28T13:36:09;13.43;;;5.00;;
72603;SDS011;60645;56.968;24.196;2023-12-28T13:38:35;10.75;;;3.78;;
72603;SDS011;60645;56.968;24.196;2023-12-28T13:41:02;10.20;;;4.20;;
72603;SDS011;60645;56.968;24.196;2023-12-28T13:43:30;12.20;;;4.18;;
72603;SDS011;60645;56.968;24.196;2023-12-28T13:45:57;14.38;;;5.35;;
72603;SDS011;60645;56.968;24.196;2023-12-28T13:50:51;13.98;;;4.43;;
72603;SDS011;60645;56.968;24.196;2023-12-28T13:53:18;12.07;;;4.53;;
72603;SDS011;60645;56.968;24.196;2023-12-28T13:55:45;11.23;;;4.93;;
72603;SDS011;60645;56.968;24.196;2023-12-28T13:58:12;15.95;;;4.72;;
72603;SDS011;60645;56.968;24.196;2023-12-28T14:00:39;10.00;;;4.57;;
72603;SDS011;60645;56.968;24.196;2023-12-28T14:03:06;13.93;;;5.25;;
72603;SDS011;60645;56.968;24.196;2023-12-28T14:05:34;13.30;;;5.20;;
72603;SDS011;60645;56.968;24.196;2023-12-28T14:08:02;12.23;;;4.72;;
72603;SDS011;60645;56.968;24.196;2023-12-28T14:10:30;14.20;;;5.60;;
72603;SDS011;60645;56.968;24.196;2023-12-28T14:12:56;12.95;;;5.72;;
72603;SDS011;60645;56.968;24.196;2023-12-28T14:15:24;11.15;;;5.13;;
72603;SDS011;60645;56.968;24.196;2023-12-28T14:17:51;17.02;;;6.32;;
72603;SDS011;60645;56.968;24.196;2023-12-28T14:20:18;11.88;;;5.47;;
72603;SDS011;60645;56.968;24.196;2023-12-28T14:22:45;19.83;;;4.38;;
72603;SDS011;60645;56.968;24.196;2023-12-28T14:25:13;14.23;;;6.32;;
72603;SDS011;60645;56.968;24.196;2023-12-28T14:27:40;15.25;;;5.78;;
72603;SDS011;60645;56.968;24.196;2023-12-28T14:30:07;12.20;;;5.28;;
72603;SDS011;60645;56.968;24.196;2023-12-28T14:32:37;15.38;;;6.03;;
72603;SDS011;60645;56.968;24.196;2023-12-28T14:35:04;11.20;;;5.35;;
72603;SDS011;60645;56.968;24.196;2023-12-28T14:37:32;13.82;;;5.22;;
72603;SDS011;60645;56.968;24.196;2023-12-28T14:39:59;14.90;;;6.78;;
72603;SDS011;60645;56.968;24.196;2023-12-28T14:42:32;16.67;;;6.38;;
72603;SDS011;60645;56.968;24.196;2023-12-28T14:45:00;14.57;;;6.68;;
72603;SDS011;60645;56.968;24.196;2023-12-28T14:47:30;15.05;;;6.43;;
72603;SDS011;60645;56.968;24.196;2023-12-28T14:49:57;21.40;;;7.97;;
72603;SDS011;60645;56.968;24.196;2023-12-28T14:52:24;21.05;;;7.72;;
72603;SDS011;60645;56.968;24.196;2023-12-28T14:54:51;15.20;;;7.15;;
72603;SDS011;60645;56.968;24.196;2023-12-28T14:57:21;16.98;;;6.97;;
72603;SDS011;60645;56.968;24.196;2023-12-28T14:59:49;18.60;;;7.63;;
72603;SDS011;60645;56.968;24.196;2023-12-28T15:02:16;24.23;;;8.07;;
72603;SDS011;60645;56.968;24.196;2023-12-28T15:04:43;21.88;;;8.70;;
72603;SDS011;60645;56.968;24.196;2023-12-28T15:07:11;19.60;;;8.05;;
72603;SDS011;60645;56.968;24.196;2023-12-28T15:09:38;19.33;;;7.97;;
72603;SDS011;60645;56.968;24.196;2023-12-28T15:14:32;19.33;;;7.68;;
72603;SDS011;60645;56.968;24.196;2023-12-28T15:16:59;17.23;;;7.05;;
72603;SDS011;60645;56.968;24.196;2023-12-28T15:19:26;17.63;;;7.47;;
72603;SDS011;60645;56.968;24.196;2023-12-28T15:21:54;19.08;;;8.20;;
72603;SDS011;60645;56.968;24.196;2023-12-28T15:24:21;22.30;;;9.60;;
72603;SDS011;60645;56.968;24.196;2023-12-28T15:26:48;21.90;;;8.38;;
72603;SDS011;60645;56.968;24.196;2023-12-28T15:29:15;14.05;;;6.30;;
72603;SDS011;60645;56.968;24.196;2023-12-28T15:31:42;20.08;;;8.35;;
72603;SDS011;60645;56.968;24.196;2023-12-28T15:36:36;25.58;;;10.73;;
72603;SDS011;60645;56.968;24.196;2023-12-28T15:46:26;25.08;;;10.10;;
72603;SDS011;60645;56.968;24.196;2023-12-28T15:48:53;30.13;;;15.02;;
72603;SDS011;60645;56.968;24.196;2023-12-28T15:51:20;24.52;;;9.93;;
72603;SDS011;60645;56.968;24.196;2023-12-28T15:53:48;27.55;;;13.18;;
72603;SDS011;60645;56.968;24.196;2023-12-28T15:56:15;24.52;;;9.68;;
72603;SDS011;60645;56.968;24.196;2023-12-28T15:58:45;26.85;;;12.85;;
72603;SDS011;60645;56.968;24.196;2023-12-28T16:01:12;21.25;;;8.02;;
72603;SDS011;60645;56.968;24.196;2023-12-28T16:03:39;22.77;;;10.63;;
72603;SDS011;60645;56.968;24.196;2023-12-28T16:06:10;25.00;;;9.10;;
72603;SDS011;60645;56.968;24.196;2023-12-28T16:08:37;41.67;;;10.40;;
72603;SDS011;60645;56.968;24.196;2023-12-28T16:11:04;28.10;;;10.25;;
72603;SDS011;60645;56.968;24.196;2023-12-28T16:13:32;30.50;;;9.93;;
72603;SDS011;60645;56.968;24.196;2023-12-28T16:16:00;27.98;;;10.93;;
72603;SDS011;60645;56.968;24.196;2023-12-28T16:18:28;27.05;;;10.07;;
72603;SDS011;60645;56.968;24.196;2023-12-28T16:20:56;21.65;;;9.98;;
72603;SDS011;60645;56.968;24.196;2023-12-28T16:23:23;27.42;;;9.35;;
72603;SDS011;60645;56.968;24.196;2023-12-28T16:25:50;25.40;;;9.55;;
72603;SDS011;60645;56.968;24.196;2023-12-28T16:28:17;31.60;;;11.40;;
72603;SDS011;60645;56.968;24.196;2023-12-28T16:33:11;27.58;;;9.25;;
72603;SDS011;60645;56.968;24.196;2023-12-28T16:35:38;26.30;;;10.38;;
72603;SDS011;60645;56.968;24.196;2023-12-28T16:38:05;31.92;;;10.98;;
72603;SDS011;60645;56.968;24.196;2023-12-28T16:40:32;28.20;;;10.38;;
72603;SDS011;60645;56.968;24.196;2023-12-28T16:42:59;28.83;;;9.68;;
72603;SDS011;60645;56.968;24.196;2023-12-28T16:52:51;20.75;;;8.65;;
72603;SDS011;60645;56.968;24.196;2023-12-28T16:55:20;25.13;;;10.20;;
72603;SDS011;60645;56.968;24.196;2023-12-28T16:57:47;29.13;;;11.25;;
72603;SDS011;60645;56.968;24.196;2023-12-28T17:00:14;27.67;;;10.52;;
72603;SDS011;60645;56.968;24.196;2023-12-28T17:02:41;28.75;;;11.02;;
72603;SDS011;60645;56.968;24.196;2023-12-28T17:05:09;32.10;;;14.02;;
72603;SDS011;60645;56.968;24.196;2023-12-28T17:07:37;34.70;;;12.75;;
72603;SDS011;60645;56.968;24.196;2023-12-28T17:10:04;32.05;;;11.43;;
72603;SDS011;60645;56.968;24.196;2023-12-28T17:12:38;34.60;;;11.32;;
72603;SDS011;60645;56.968;24.196;2023-12-28T17:15:08;41.75;;;14.88;;
72603;SDS011;60645;56.968;24.196;2023-12-28T17:17:36;31.15;;;11.20;;
72603;SDS011;60645;56.968;24.196;2023-12-28T17:20:06;39.53;;;14.18;;
72603;SDS011;60645;56.968;24.196;2023-12-28T17:22:39;23.08;;;8.70;;
72603;SDS011;60645;56.968;24.196;2023-12-28T17:37:35;38.72;;;11.70;;
72603;SDS011;60645;56.968;24.196;2023-12-28T17:40:02;24.23;;;9.48;;
72603;SDS011;60645;56.968;24.196;2023-12-28T17:42:29;22.35;;;10.13;;
72603;SDS011;60645;56.968;24.196;2023-12-28T17:44:58;30.45;;;10.95;;
72603;SDS011;60645;56.968;24.196;2023-12-28T17:47:28;34.05;;;11.57;;
72603;SDS011;60645;56.968;24.196;2023-12-28T17:50:01;27.45;;;10.48;;
72603;SDS011;60645;56.968;24.196;2023-12-28T17:52:29;35.65;;;13.50;;
72603;SDS011;60645;56.968;24.196;2023-12-28T17:54:58;28.58;;;10.68;;
72603;SDS011;60645;56.968;24.196;2023-12-28T17:59:52;26.50;;;10.13;;
72603;SDS011;60645;56.968;24.196;2023-12-28T18:02:19;37.25;;;13.43;;
72603;SDS011;60645;56.968;24.196;2023-12-28T18:04:46;25.10;;;9.63;;
72603;SDS011;60645;56.968;24.196;2023-12-28T18:07:13;25.58;;;10.43;;
72603;SDS011;60645;56.968;24.196;2023-12-28T18:09:40;30.83;;;11.02;;
72603;SDS011;60645;56.968;24.196;2023-12-28T18:12:08;26.52;;;11.30;;
72603;SDS011;60645;56.968;24.196;2023-12-28T18:14:36;21.10;;;8.60;;
72603;SDS011;60645;56.968;24.196;2023-12-28T18:17:03;22.48;;;9.70;;
72603;SDS011;60645;56.968;24.196;2023-12-28T18:19:30;30.95;;;11.25;;
72603;SDS011;60645;56.968;24.196;2023-12-28T18:21:58;29.48;;;10.18;;
72603;SDS011;60645;56.968;24.196;2023-12-28T18:24:25;25.73;;;10.20;;
72603;SDS011;60645;56.968;24.196;2023-12-28T18:26:52;28.23;;;11.18;;
72603;SDS011;60645;56.968;24.196;2023-12-28T18:29:19;26.13;;;9.88;;
72603;SDS011;60645;56.968;24.196;2023-12-28T18:31:46;27.40;;;9.32;;
72603;SDS011;60645;56.968;24.196;2023-12-28T18:34:13;19.33;;;7.43;;
72603;SDS011;60645;56.968;24.196;2023-12-28T18:36:40;21.13;;;8.30;;
72603;SDS011;60645;56.968;24.196;2023-12-28T18:39:07;27.27;;;10.32;;
72603;SDS011;60645;56.968;24.196;2023-12-28T18:41:36;23.45;;;7.82;;
72603;SDS011;60645;56.968;24.196;2023-12-28T18:44:02;21.15;;;9.18;;
72603;SDS011;60645;56.968;24.196;2023-12-28T18:46:29;19.60;;;8.55;;
72603;SDS011;60645;56.968;24.196;2023-12-28T18:48:56;18.20;;;7.53;;
72603;SDS011;60645;56.968;24.196;2023-12-28T18:51:24;22.40;;;7.80;;
72603;SDS011;60645;56.968;24.196;2023-12-28T18:53:51;23.13;;;7.90;;
72603;SDS011;60645;56.968;24.196;2023-12-28T18:56:18;21.67;;;8.77;;
72603;SDS011;60645;56.968;24.196;2023-12-28T18:58:45;13.80;;;7.13;;
72603;SDS011;60645;56.968;24.196;2023-12-28T19:01:12;21.35;;;9.15;;
72603;SDS011;60645;56.968;24.196;2023-12-28T19:06:13;17.52;;;6.68;;
72603;SDS011;60645;56.968;24.196;2023-12-28T19:11:14;17.38;;;7.88;;
72603;SDS011;60645;56.968;24.196;2023-12-28T19:13:42;18.45;;;8.05;;
72603;SDS011;60645;56.968;24.196;2023-12-28T19:16:19;16.73;;;7.05;;
72603;SDS011;60645;56.968;24.196;2023-12-28T19:23:47;17.73;;;8.68;;
72603;SDS011;60645;56.968;24.196;2023-12-28T19:28:45;22.55;;;9.07;;
